createdAt,value
2023-04-20T00:02:51.208Z,6.60
2023-04-20T00:07:54.642Z,5.00
2023-04-20T00:12:56.407Z,5.38
2023-04-20T00:17:58.365Z,5.43
2023-04-20T00:23:00.152Z,5.22
2023-04-20T00:28:01.937Z,4.68
2023-04-20T00:33:03.962Z,4.07
2023-04-20T00:38:06.026Z,3.58
2023-04-20T00:43:14.266Z,3.90
2023-04-20T00:48:16.075Z,5.75
2023-04-20T00:53:19.281Z,4.05
2023-04-20T00:58:21.628Z,3.45
2023-04-20T01:03:23.693Z,3.42
2023-04-20T01:08:27.543Z,3.10
2023-04-20T01:13:30.576Z,4.90
2023-04-20T01:18:47.375Z,4.55
2023-04-20T01:23:50.072Z,4.75
2023-04-20T01:28:52.036Z,6.55
2023-04-20T01:33:54.495Z,6.25
2023-04-20T01:38:56.551Z,22.63
2023-04-20T01:43:58.451Z,11.63
2023-04-20T01:49:00.292Z,16.85
2023-04-20T01:54:02.533Z,11.48
2023-04-20T01:59:04.376Z,14.25
2023-04-20T02:04:06.256Z,10.57
2023-04-20T02:09:09.429Z,12.45
2023-04-20T02:14:11.218Z,14.48
2023-04-20T02:19:13.075Z,11.38
2023-04-20T02:24:14.902Z,13.30
2023-04-20T02:29:17.002Z,12.85
2023-04-20T02:34:19.299Z,10.20
2023-04-20T02:39:21.382Z,14.05
2023-04-20T02:44:23.178Z,10.95
2023-04-20T02:49:25.355Z,11.57
2023-04-20T02:54:27.303Z,12.73
2023-04-20T02:59:29.197Z,12.05
2023-04-20T03:04:54.119Z,11.27
2023-04-20T03:09:57.077Z,16.75
2023-04-20T03:15:19.293Z,16.45
2023-04-20T03:20:41.462Z,11.77
2023-04-20T03:25:43.754Z,12.82
2023-04-20T03:30:53.207Z,14.38
2023-04-20T03:35:55.765Z,13.77
2023-04-20T03:40:57.661Z,12.93
2023-04-20T03:45:59.544Z,15.30
2023-04-20T03:51:01.579Z,14.98
2023-04-20T03:56:03.461Z,15.88
2023-04-20T04:01:09.993Z,14.38
2023-04-20T04:06:16.134Z,12.27
2023-04-20T04:11:18.009Z,14.30
2023-04-20T04:16:20.590Z,13.45
2023-04-20T04:21:23.544Z,78.85
2023-04-20T04:26:31.960Z,31.95
2023-04-20T04:31:35.369Z,41.70
2023-04-20T04:36:44.529Z,296.00
2023-04-20T04:41:49.017Z,159.95
2023-04-20T04:47:11.967Z,488.65
2023-04-20T04:52:13.978Z,531.80
2023-04-20T04:57:15.856Z,125.97
2023-04-20T05:02:17.977Z,222.07
2023-04-20T05:07:20.064Z,238.10
2023-04-20T05:12:21.920Z,310.20
2023-04-20T05:17:23.801Z,41.97
2023-04-20T05:22:25.757Z,25.35
2023-04-20T05:27:27.567Z,64.20
2023-04-20T05:32:29.476Z,137.07
2023-04-20T05:37:32.373Z,682.80
2023-04-20T05:42:34.128Z,593.70
2023-04-20T05:47:35.921Z,512.15
2023-04-20T05:52:38.181Z,228.25
2023-04-20T05:57:43.081Z,535.42
2023-04-20T06:02:45.732Z,380.88
2023-04-20T06:07:47.585Z,661.90
2023-04-20T06:12:49.472Z,583.85
2023-04-20T06:17:51.365Z,498.30
2023-04-20T06:22:53.596Z,579.80
2023-04-20T06:27:55.377Z,201.57
2023-04-20T06:32:57.265Z,41.28
2023-04-20T06:37:59.624Z,170.45
2023-04-20T06:43:01.505Z,29.52
2023-04-20T06:48:03.810Z,110.00
2023-04-20T06:53:05.860Z,107.32
2023-04-20T06:58:07.676Z,101.78
2023-04-20T07:03:09.653Z,97.28
2023-04-20T07:08:11.518Z,31.50
2023-04-20T07:13:13.291Z,46.35
2023-04-20T07:18:15.319Z,105.30
2023-04-20T07:23:17.121Z,212.45
2023-04-20T07:28:18.939Z,81.63
2023-04-20T07:33:21.235Z,30.55
2023-04-20T07:38:23.016Z,27.33
2023-04-20T07:43:24.867Z,29.67
2023-04-20T07:48:26.627Z,31.95
2023-04-20T07:53:31.466Z,28.73
2023-04-20T07:58:33.241Z,31.77
2023-04-20T08:03:35.864Z,28.05
2023-04-20T08:08:37.768Z,29.75
2023-04-20T08:13:40.110Z,29.42
2023-04-20T08:18:42.555Z,27.23
2023-04-20T08:23:44.576Z,30.48
2023-04-20T08:28:46.782Z,33.60
2023-04-20T08:33:48.562Z,35.50
2023-04-20T08:39:14.797Z,30.85
2023-04-20T08:44:16.799Z,31.42
2023-04-20T08:49:19.986Z,32.05
2023-04-20T08:54:23.615Z,31.40
2023-04-20T08:59:27.525Z,31.50
2023-04-20T09:04:29.567Z,31.25
2023-04-20T09:09:31.646Z,32.75
2023-04-20T09:14:46.993Z,41.67
2023-04-20T09:19:53.570Z,33.42
2023-04-20T09:24:55.361Z,30.65
2023-04-20T09:30:01.221Z,33.10
2023-04-20T09:35:03.034Z,34.55
2023-04-20T09:40:06.096Z,34.08
2023-04-20T09:45:08.968Z,37.55
2023-04-20T09:50:24.686Z,33.50
2023-04-20T10:00:34.219Z,30.20
2023-04-20T10:05:36.927Z,34.15
2023-04-20T10:10:50.261Z,33.60
2023-04-20T10:15:52.088Z,32.15
2023-04-20T10:21:06.400Z,35.47
2023-04-20T10:26:08.205Z,34.70
2023-04-20T10:31:13.769Z,32.35
2023-04-20T10:36:27.668Z,38.03
2023-04-20T10:41:29.461Z,30.83
2023-04-20T10:46:31.580Z,31.70
2023-04-20T10:51:33.478Z,35.33
2023-04-20T10:57:03.218Z,39.15
2023-04-20T11:02:10.873Z,33.75
2023-04-20T11:07:15.269Z,34.75
2023-04-20T11:12:18.041Z,36.97
2023-04-20T11:17:20.304Z,33.92
2023-04-20T11:22:23.603Z,37.95
2023-04-20T11:27:25.378Z,38.60
2023-04-20T11:32:27.478Z,40.70
2023-04-20T11:37:29.730Z,38.88
2023-04-20T11:42:32.111Z,38.78
2023-04-20T11:47:34.101Z,36.60
2023-04-20T11:52:36.310Z,47.05
2023-04-20T11:57:38.152Z,37.65
2023-04-20T12:02:40.102Z,45.50
2023-04-20T12:07:41.980Z,41.22
2023-04-20T12:12:43.737Z,44.75
2023-04-20T12:17:45.620Z,43.22
2023-04-20T12:22:47.425Z,45.75
2023-04-20T12:27:49.980Z,45.10
2023-04-20T12:32:51.903Z,46.90
2023-04-20T12:37:53.710Z,47.08
2023-04-20T12:42:55.641Z,53.10
2023-04-20T12:48:00.255Z,40.65
2023-04-20T12:53:02.481Z,43.42
2023-04-20T12:58:04.332Z,45.13
2023-04-20T13:03:06.339Z,42.53
2023-04-20T13:08:08.232Z,42.08
2023-04-20T13:13:12.837Z,39.78
2023-04-20T13:18:15.560Z,39.85
2023-04-20T13:23:17.375Z,46.58
2023-04-20T13:28:19.406Z,49.53
2023-04-20T13:33:21.190Z,45.72
2023-04-20T13:38:23.038Z,41.95
2023-04-20T13:43:25.580Z,52.50
2023-04-20T13:48:27.341Z,47.40
2023-04-20T13:53:29.166Z,38.47
2023-04-20T13:58:31.075Z,40.88
2023-04-20T14:03:32.899Z,39.65
2023-04-20T14:08:34.744Z,37.15
2023-04-20T14:13:38.139Z,33.33
2023-04-20T14:18:41.119Z,32.95
2023-04-20T14:23:43.096Z,33.40
2023-04-20T14:28:45.936Z,33.00
2023-04-20T14:33:47.784Z,32.17
2023-04-20T14:38:49.652Z,38.85
2023-04-20T14:43:51.475Z,38.72
2023-04-20T14:48:53.350Z,36.17
2023-04-20T14:53:55.599Z,34.30
2023-04-20T14:58:59.620Z,37.88
2023-04-20T15:04:01.721Z,37.47
2023-04-20T15:09:03.765Z,35.60
2023-04-20T15:14:05.563Z,32.13
2023-04-20T15:19:07.514Z,31.67
2023-04-20T15:24:09.470Z,31.75
2023-04-20T15:29:11.261Z,35.30
2023-04-20T15:34:15.412Z,34.30
2023-04-20T15:39:17.443Z,35.83
2023-04-20T15:44:19.824Z,32.65
2023-04-20T15:49:22.033Z,32.90
2023-04-20T15:54:23.935Z,34.63
2023-04-20T15:59:25.833Z,35.05
2023-04-20T16:04:27.721Z,35.30
2023-04-20T16:09:29.620Z,38.33
2023-04-20T16:14:31.821Z,32.30
2023-04-20T16:19:34.620Z,29.85
2023-04-20T16:24:36.437Z,35.10
2023-04-20T16:29:38.562Z,31.38
2023-04-20T16:34:41.123Z,44.22
2023-04-20T16:39:43.950Z,41.85
2023-04-20T16:44:45.766Z,38.65
2023-04-20T16:49:47.673Z,38.13
2023-04-20T16:54:49.888Z,37.08
2023-04-20T16:59:51.969Z,36.88
2023-04-20T17:04:54.317Z,37.90
2023-04-20T17:09:56.467Z,37.78
2023-04-20T17:14:58.294Z,37.70
2023-04-20T17:20:00.215Z,34.25
2023-04-20T17:25:02.450Z,42.03
2023-04-20T17:30:05.420Z,38.72
2023-04-20T17:35:07.901Z,36.10
2023-04-20T17:40:10.318Z,31.77
2023-04-20T17:45:12.132Z,35.53
2023-04-20T17:50:16.323Z,35.15
2023-04-20T17:55:18.375Z,52.78
2023-04-20T18:00:20.679Z,33.70
2023-04-20T18:05:22.478Z,35.78
2023-04-20T18:10:24.270Z,34.03
2023-04-20T18:15:26.251Z,31.17
2023-04-20T18:20:29.450Z,30.83
2023-04-20T18:25:32.222Z,34.00
2023-04-20T18:30:34.089Z,30.42
2023-04-20T18:35:35.900Z,34.28
2023-04-20T18:40:37.910Z,36.38
2023-04-20T18:45:39.724Z,36.78
2023-04-20T18:50:41.619Z,31.73
2023-04-20T18:55:43.392Z,33.60
2023-04-20T19:00:45.396Z,35.92
2023-04-20T19:05:47.452Z,31.40
2023-04-20T19:10:49.451Z,27.42
2023-04-20T19:15:55.210Z,33.58
2023-04-20T19:20:57.070Z,31.65
2023-04-20T19:25:58.850Z,30.98
2023-04-20T19:31:00.884Z,33.17
2023-04-20T19:36:03.499Z,36.42
2023-04-20T19:41:06.433Z,30.65
2023-04-20T19:46:09.906Z,33.45
2023-04-20T19:51:12.290Z,32.13
2023-04-20T19:56:14.145Z,30.60
2023-04-20T20:01:15.982Z,31.02
2023-04-20T20:06:18.463Z,30.73
2023-04-20T20:11:22.110Z,33.63
2023-04-20T20:16:24.036Z,31.85
2023-04-20T20:21:25.945Z,28.05
2023-04-20T20:26:27.801Z,38.05
2023-04-20T20:31:29.621Z,33.28
2023-04-20T20:36:32.042Z,31.98
2023-04-20T20:41:34.409Z,27.83
2023-04-20T20:46:40.212Z,33.50
2023-04-20T20:51:42.942Z,31.08
2023-04-20T20:56:44.783Z,29.17
2023-04-20T21:01:46.752Z,30.55
2023-04-20T21:06:48.867Z,29.17
2023-04-20T21:11:50.745Z,27.25
2023-04-20T21:16:52.544Z,31.27
2023-04-20T21:21:54.357Z,28.27
2023-04-20T21:26:56.602Z,25.58
2023-04-20T21:31:58.392Z,35.90
2023-04-20T21:37:04.194Z,30.80
2023-04-20T21:42:06.089Z,28.48
2023-04-20T21:47:08.141Z,35.97
2023-04-20T21:52:10.006Z,32.65
2023-04-20T21:57:11.817Z,30.48
2023-04-20T22:02:13.669Z,29.65
2023-04-20T22:07:17.772Z,31.73
2023-04-20T22:12:32.273Z,30.63
2023-04-20T22:17:38.573Z,28.85
2023-04-20T22:22:40.899Z,36.25
2023-04-20T22:27:43.104Z,31.60
2023-04-20T22:32:44.923Z,27.25
2023-04-20T22:37:46.706Z,31.80
2023-04-20T22:42:48.707Z,29.67
2023-04-20T22:47:50.678Z,28.60
2023-04-20T22:52:52.550Z,30.38
2023-04-20T22:57:54.472Z,31.13
2023-04-20T23:02:56.404Z,30.08
2023-04-20T23:08:00.539Z,30.92
2023-04-20T23:13:02.316Z,35.47
2023-04-20T23:18:05.773Z,41.08
2023-04-20T23:23:07.734Z,35.95
2023-04-20T23:28:09.696Z,27.90
2023-04-20T23:33:11.509Z,28.10
2023-04-20T23:38:13.412Z,28.42
2023-04-20T23:43:15.250Z,30.50
2023-04-20T23:48:17.129Z,30.95
2023-04-20T23:53:18.909Z,36.03
2023-04-20T23:58:25.791Z,35.72
